sensor_id;sensor_type;location;lat;lon;timestamp;temperature;humidity
7814;DHT22;3952;48.364;16.022;2022-12-17T00:01:44;0.50;99.90
7814;DHT22;3952;48.364;16.022;2022-12-17T00:04:28;0.60;99.90
7814;DHT22;3952;48.364;16.022;2022-12-17T00:07:15;0.50;99.90
7814;DHT22;3952;48.364;16.022;2022-12-17T00:09:59;0.50;99.90
7814;DHT22;3952;48.364;16.022;2022-12-17T00:12:45;0.60;99.90
7814;DHT22;3952;48.364;16.022;2022-12-17T00:15:30;0.50;99.90
7814;DHT22;3952;48.364;16.022;2022-12-17T00:18:15;0.50;99.90
7814;DHT22;3952;48.364;16.022;2022-12-17T00:21:00;0.50;99.90
7814;DHT22;3952;48.364;16.022;2022-12-17T00:23:47;0.60;99.90
7814;DHT22;3952;48.364;16.022;2022-12-17T00:26:32;0.50;99.90
7814;DHT22;3952;48.364;16.022;2022-12-17T00:29:16;0.50;99.90
7814;DHT22;3952;48.364;16.022;2022-12-17T00:32:02;0.50;99.90
7814;DHT22;3952;48.364;16.022;2022-12-17T00:34:47;0.50;99.90
7814;DHT22;3952;48.364;16.022;2022-12-17T00:37:31;0.50;99.90
7814;DHT22;3952;48.364;16.022;2022-12-17T00:40:17;0.50;99.90
7814;DHT22;3952;48.364;16.022;2022-12-17T00:43:04;0.50;99.90
7814;DHT22;3952;48.364;16.022;2022-12-17T00:45:49;0.50;99.90
7814;DHT22;3952;48.364;16.022;2022-12-17T00:48:34;0.50;99.90
7814;DHT22;3952;48.364;16.022;2022-12-17T00:51:19;0.50;99.90
7814;DHT22;3952;48.364;16.022;2022-12-17T00:54:04;0.50;99.90
7814;DHT22;3952;48.364;16.022;2022-12-17T00:56:50;0.50;99.90
7814;DHT22;3952;48.364;16.022;2022-12-17T00:59:35;0.50;99.90
7814;DHT22;3952;48.364;16.022;2022-12-17T01:02:20;0.50;99.90
7814;DHT22;3952;48.364;16.022;2022-12-17T01:05:06;0.50;99.90
7814;DHT22;3952;48.364;16.022;2022-12-17T01:07:51;0.50;99.90
7814;DHT22;3952;48.364;16.022;2022-12-17T01:10:35;0.50;99.90
7814;DHT22;3952;48.364;16.022;2022-12-17T01:13:22;0.50;99.90
7814;DHT22;3952;48.364;16.022;2022-12-17T01:16:09;0.50;99.90
7814;DHT22;3952;48.364;16.022;2022-12-17T01:18:53;0.50;99.90
7814;DHT22;3952;48.364;16.022;2022-12-17T01:21:38;0.50;99.90
7814;DHT22;3952;48.364;16.022;2022-12-17T01:24:22;0.50;99.90
7814;DHT22;3952;48.364;16.022;2022-12-17T01:27:07;0.50;99.90
7814;DHT22;3952;48.364;16.022;2022-12-17T01:29:53;0.60;99.90
7814;DHT22;3952;48.364;16.022;2022-12-17T01:32:38;0.50;99.90
7814;DHT22;3952;48.364;16.022;2022-12-17T01:35:22;0.50;99.90
7814;DHT22;3952;48.364;16.022;2022-12-17T01:38:10;0.50;99.90
7814;DHT22;3952;48.364;16.022;2022-12-17T01:40:55;0.60;99.90
7814;DHT22;3952;48.364;16.022;2022-12-17T01:43:40;0.60;99.90
7814;DHT22;3952;48.364;16.022;2022-12-17T01:46:35;0.60;99.90
7814;DHT22;3952;48.364;16.022;2022-12-17T01:49:23;0.50;99.90
7814;DHT22;3952;48.364;16.022;2022-12-17T01:52:09;0.50;99.90
7814;DHT22;3952;48.364;16.022;2022-12-17T01:54:55;0.50;99.90
7814;DHT22;3952;48.364;16.022;2022-12-17T01:57:40;0.50;99.90
7814;DHT22;3952;48.364;16.022;2022-12-17T02:00:24;0.50;99.90
7814;DHT22;3952;48.364;16.022;2022-12-17T02:03:15;0.50;99.90
7814;DHT22;3952;48.364;16.022;2022-12-17T02:06:05;0.30;99.90
7814;DHT22;3952;48.364;16.022;2022-12-17T02:08:58;0.50;99.90
7814;DHT22;3952;48.364;16.022;2022-12-17T02:11:53;0.40;99.90
7814;DHT22;3952;48.364;16.022;2022-12-17T02:14:43;0.50;99.90
7814;DHT22;3952;48.364;16.022;2022-12-17T02:17:33;0.40;99.90
7814;DHT22;3952;48.364;16.022;2022-12-17T02:20:25;0.50;99.90
7814;DHT22;3952;48.364;16.022;2022-12-17T02:23:24;0.40;99.90
7814;DHT22;3952;48.364;16.022;2022-12-17T02:26:13;0.50;99.90
7814;DHT22;3952;48.364;16.022;2022-12-17T02:29:03;0.50;99.90
7814;DHT22;3952;48.364;16.022;2022-12-17T02:31:49;0.50;99.90
7814;DHT22;3952;48.364;16.022;2022-12-17T02:34:43;0.50;99.90
7814;DHT22;3952;48.364;16.022;2022-12-17T02:37:27;0.50;99.90
7814;DHT22;3952;48.364;16.022;2022-12-17T02:40:12;0.50;99.90
7814;DHT22;3952;48.364;16.022;2022-12-17T02:42:57;0.50;99.90
7814;DHT22;3952;48.364;16.022;2022-12-17T02:45:45;0.50;99.90
7814;DHT22;3952;48.364;16.022;2022-12-17T02:48:30;0.60;99.90
7814;DHT22;3952;48.364;16.022;2022-12-17T02:51:15;0.60;99.90
7814;DHT22;3952;48.364;16.022;2022-12-17T02:54:02;0.60;99.90
7814;DHT22;3952;48.364;16.022;2022-12-17T02:56:47;0.60;99.90
7814;DHT22;3952;48.364;16.022;2022-12-17T02:59:31;0.60;99.90
7814;DHT22;3952;48.364;16.022;2022-12-17T03:02:17;0.60;99.90
7814;DHT22;3952;48.364;16.022;2022-12-17T03:05:02;0.60;99.90
7814;DHT22;3952;48.364;16.022;2022-12-17T03:07:47;0.60;99.90
7814;DHT22;3952;48.364;16.022;2022-12-17T03:10:31;0.60;99.90
7814;DHT22;3952;48.364;16.022;2022-12-17T03:13:23;0.70;99.90
7814;DHT22;3952;48.364;16.022;2022-12-17T03:16:09;0.70;99.90
7814;DHT22;3952;48.364;16.022;2022-12-17T03:18:56;0.70;99.90
7814;DHT22;3952;48.364;16.022;2022-12-17T03:21:40;0.70;99.90
7814;DHT22;3952;48.364;16.022;2022-12-17T03:24:26;0.70;99.90
7814;DHT22;3952;48.364;16.022;2022-12-17T03:27:11;0.70;99.90
7814;DHT22;3952;48.364;16.022;2022-12-17T03:29:55;0.70;99.90
7814;DHT22;3952;48.364;16.022;2022-12-17T03:32:40;0.70;99.90
7814;DHT22;3952;48.364;16.022;2022-12-17T03:35:26;0.70;99.90
7814;DHT22;3952;48.364;16.022;2022-12-17T03:38:11;0.70;99.90
7814;DHT22;3952;48.364;16.022;2022-12-17T03:41:05;0.70;99.90
7814;DHT22;3952;48.364;16.022;2022-12-17T03:43:49;0.70;99.90
7814;DHT22;3952;48.364;16.022;2022-12-17T03:46:34;0.70;99.90
7814;DHT22;3952;48.364;16.022;2022-12-17T03:49:18;0.80;99.90
7814;DHT22;3952;48.364;16.022;2022-12-17T03:52:05;0.80;99.90
7814;DHT22;3952;48.364;16.022;2022-12-17T03:54:49;0.70;99.90
7814;DHT22;3952;48.364;16.022;2022-12-17T03:57:34;0.80;99.90
7814;DHT22;3952;48.364;16.022;2022-12-17T04:00:18;0.70;99.90
7814;DHT22;3952;48.364;16.022;2022-12-17T04:03:03;0.70;99.90
7814;DHT22;3952;48.364;16.022;2022-12-17T04:05:47;0.70;99.90
7814;DHT22;3952;48.364;16.022;2022-12-17T04:08:33;0.70;99.90
7814;DHT22;3952;48.364;16.022;2022-12-17T04:11:18;0.70;99.90
7814;DHT22;3952;48.364;16.022;2022-12-17T04:14:02;0.70;99.90
7814;DHT22;3952;48.364;16.022;2022-12-17T04:16:47;0.70;99.90
7814;DHT22;3952;48.364;16.022;2022-12-17T04:19:32;0.70;99.90
7814;DHT22;3952;48.364;16.022;2022-12-17T04:22:16;0.60;99.90
7814;DHT22;3952;48.364;16.022;2022-12-17T04:25:02;0.60;99.90
7814;DHT22;3952;48.364;16.022;2022-12-17T04:27:47;0.60;99.90
7814;DHT22;3952;48.364;16.022;2022-12-17T04:30:40;0.60;99.90
7814;DHT22;3952;48.364;16.022;2022-12-17T04:33:25;0.50;99.90
7814;DHT22;3952;48.364;16.022;2022-12-17T04:36:10;0.50;99.90
7814;DHT22;3952;48.364;16.022;2022-12-17T04:38:59;0.50;99.90
7814;DHT22;3952;48.364;16.022;2022-12-17T04:41:46;0.50;99.90
7814;DHT22;3952;48.364;16.022;2022-12-17T04:44:30;0.60;99.90
7814;DHT22;3952;48.364;16.022;2022-12-17T04:47:15;0.50;99.90
7814;DHT22;3952;48.364;16.022;2022-12-17T04:49:59;0.50;99.90
7814;DHT22;3952;48.364;16.022;2022-12-17T04:52:44;0.50;99.90
7814;DHT22;3952;48.364;16.022;2022-12-17T04:55:28;0.50;99.90
7814;DHT22;3952;48.364;16.022;2022-12-17T04:58:14;0.50;99.90
7814;DHT22;3952;48.364;16.022;2022-12-17T05:00:59;0.60;99.90
7814;DHT22;3952;48.364;16.022;2022-12-17T05:03:44;0.60;99.90
7814;DHT22;3952;48.364;16.022;2022-12-17T05:06:28;0.60;99.90
7814;DHT22;3952;48.364;16.022;2022-12-17T05:09:13;0.60;99.90
7814;DHT22;3952;48.364;16.022;2022-12-17T05:12:06;0.60;99.90
7814;DHT22;3952;48.364;16.022;2022-12-17T05:14:52;0.60;99.90
7814;DHT22;3952;48.364;16.022;2022-12-17T05:17:37;0.60;99.90
7814;DHT22;3952;48.364;16.022;2022-12-17T05:20:21;0.60;99.90
7814;DHT22;3952;48.364;16.022;2022-12-17T05:23:07;0.60;99.90
7814;DHT22;3952;48.364;16.022;2022-12-17T05:25:58;0.60;99.90
7814;DHT22;3952;48.364;16.022;2022-12-17T05:28:45;0.60;99.90
7814;DHT22;3952;48.364;16.022;2022-12-17T05:31:31;0.60;99.90
7814;DHT22;3952;48.364;16.022;2022-12-17T05:34:16;0.60;99.90
7814;DHT22;3952;48.364;16.022;2022-12-17T05:37:00;0.60;99.90
7814;DHT22;3952;48.364;16.022;2022-12-17T05:39:45;0.60;99.90
7814;DHT22;3952;48.364;16.022;2022-12-17T05:42:30;0.60;99.90
7814;DHT22;3952;48.364;16.022;2022-12-17T05:45:14;0.60;99.90
7814;DHT22;3952;48.364;16.022;2022-12-17T05:48:00;0.60;99.90
7814;DHT22;3952;48.364;16.022;2022-12-17T05:50:49;0.50;99.90
7814;DHT22;3952;48.364;16.022;2022-12-17T05:53:33;0.50;99.90
7814;DHT22;3952;48.364;16.022;2022-12-17T05:56:18;0.60;99.90
7814;DHT22;3952;48.364;16.022;2022-12-17T05:59:03;0.50;99.90
7814;DHT22;3952;48.364;16.022;2022-12-17T06:01:48;0.50;99.90
7814;DHT22;3952;48.364;16.022;2022-12-17T06:04:34;0.50;99.90
7814;DHT22;3952;48.364;16.022;2022-12-17T06:07:18;0.60;99.90
7814;DHT22;3952;48.364;16.022;2022-12-17T06:10:03;0.50;99.90
7814;DHT22;3952;48.364;16.022;2022-12-17T06:12:54;0.50;99.90
7814;DHT22;3952;48.364;16.022;2022-12-17T06:15:39;0.50;99.90
7814;DHT22;3952;48.364;16.022;2022-12-17T06:18:23;0.60;99.90
7814;DHT22;3952;48.364;16.022;2022-12-17T06:21:09;0.50;99.90
7814;DHT22;3952;48.364;16.022;2022-12-17T06:23:54;0.60;99.90
7814;DHT22;3952;48.364;16.022;2022-12-17T06:26:39;0.50;99.90
7814;DHT22;3952;48.364;16.022;2022-12-17T06:29:23;0.60;99.90
7814;DHT22;3952;48.364;16.022;2022-12-17T06:32:08;0.60;99.90
7814;DHT22;3952;48.364;16.022;2022-12-17T06:34:52;0.60;99.90
7814;DHT22;3952;48.364;16.022;2022-12-17T06:37:38;0.60;99.90
7814;DHT22;3952;48.364;16.022;2022-12-17T06:40:23;0.60;99.90
7814;DHT22;3952;48.364;16.022;2022-12-17T06:43:07;0.50;99.90
7814;DHT22;3952;48.364;16.022;2022-12-17T06:45:52;0.60;99.90
7814;DHT22;3952;48.364;16.022;2022-12-17T06:48:37;0.50;99.90
7814;DHT22;3952;48.364;16.022;2022-12-17T06:51:21;0.60;99.90
7814;DHT22;3952;48.364;16.022;2022-12-17T06:54:07;0.60;99.90
7814;DHT22;3952;48.364;16.022;2022-12-17T06:56:52;0.60;99.90
7814;DHT22;3952;48.364;16.022;2022-12-17T06:59:40;0.50;99.90
7814;DHT22;3952;48.364;16.022;2022-12-17T07:02:24;0.60;99.90
7814;DHT22;3952;48.364;16.022;2022-12-17T07:05:08;0.60;99.90
7814;DHT22;3952;48.364;16.022;2022-12-17T07:07:56;0.60;99.90
7814;DHT22;3952;48.364;16.022;2022-12-17T07:10:42;0.60;99.90
7814;DHT22;3952;48.364;16.022;2022-12-17T07:13:28;0.60;99.90
7814;DHT22;3952;48.364;16.022;2022-12-17T07:16:12;0.60;99.90
7814;DHT22;3952;48.364;16.022;2022-12-17T07:18:57;0.60;99.90
7814;DHT22;3952;48.364;16.022;2022-12-17T07:21:42;0.60;99.90
7814;DHT22;3952;48.364;16.022;2022-12-17T07:24:26;0.70;99.90
7814;DHT22;3952;48.364;16.022;2022-12-17T07:27:12;0.60;99.90
7814;DHT22;3952;48.364;16.022;2022-12-17T07:29:57;0.60;99.90
7814;DHT22;3952;48.364;16.022;2022-12-17T07:32:42;0.60;99.90
7814;DHT22;3952;48.364;16.022;2022-12-17T07:35:27;0.60;99.90
7814;DHT22;3952;48.364;16.022;2022-12-17T07:38:11;0.70;99.90
7814;DHT22;3952;48.364;16.022;2022-12-17T07:40:57;0.70;99.90
7814;DHT22;3952;48.364;16.022;2022-12-17T07:43:43;0.70;99.90
7814;DHT22;3952;48.364;16.022;2022-12-17T07:46:28;0.70;99.90
7814;DHT22;3952;48.364;16.022;2022-12-17T07:49:13;0.70;99.90
7814;DHT22;3952;48.364;16.022;2022-12-17T07:51:57;0.70;99.90
7814;DHT22;3952;48.364;16.022;2022-12-17T07:54:42;0.70;99.90
7814;DHT22;3952;48.364;16.022;2022-12-17T07:57:26;0.70;99.90
7814;DHT22;3952;48.364;16.022;2022-12-17T08:00:13;0.70;99.90
7814;DHT22;3952;48.364;16.022;2022-12-17T08:03:00;0.70;99.90
7814;DHT22;3952;48.364;16.022;2022-12-17T08:05:45;0.80;99.90
7814;DHT22;3952;48.364;16.022;2022-12-17T08:08:29;0.80;99.90
7814;DHT22;3952;48.364;16.022;2022-12-17T08:11:14;0.80;99.90
7814;DHT22;3952;48.364;16.022;2022-12-17T08:13:58;0.80;99.90
7814;DHT22;3952;48.364;16.022;2022-12-17T08:16:45;0.80;99.90
7814;DHT22;3952;48.364;16.022;2022-12-17T08:19:30;0.90;99.90
7814;DHT22;3952;48.364;16.022;2022-12-17T08:22:15;0.90;99.90
7814;DHT22;3952;48.364;16.022;2022-12-17T08:24:59;0.90;99.90
7814;DHT22;3952;48.364;16.022;2022-12-17T08:27:43;0.90;99.90
7814;DHT22;3952;48.364;16.022;2022-12-17T08:30:28;0.90;99.90
7814;DHT22;3952;48.364;16.022;2022-12-17T08:33:14;0.90;99.90
7814;DHT22;3952;48.364;16.022;2022-12-17T08:35:59;0.90;99.90
7814;DHT22;3952;48.364;16.022;2022-12-17T08:38:44;0.90;99.90
7814;DHT22;3952;48.364;16.022;2022-12-17T08:41:29;1.00;99.90
7814;DHT22;3952;48.364;16.022;2022-12-17T08:44:13;1.00;99.90
7814;DHT22;3952;48.364;16.022;2022-12-17T08:46:58;1.00;99.90
7814;DHT22;3952;48.364;16.022;2022-12-17T08:49:44;1.00;99.90
7814;DHT22;3952;48.364;16.022;2022-12-17T08:52:25;1.00;99.90
7814;DHT22;3952;48.364;16.022;2022-12-17T08:55:10;1.10;99.90
7814;DHT22;3952;48.364;16.022;2022-12-17T08:57:56;1.00;99.90
7814;DHT22;3952;48.364;16.022;2022-12-17T09:00:42;1.00;99.90
7814;DHT22;3952;48.364;16.022;2022-12-17T09:03:26;1.00;99.90
7814;DHT22;3952;48.364;16.022;2022-12-17T09:06:12;1.10;99.90
7814;DHT22;3952;48.364;16.022;2022-12-17T09:08:57;1.00;99.90
7814;DHT22;3952;48.364;16.022;2022-12-17T09:11:42;1.10;99.90
7814;DHT22;3952;48.364;16.022;2022-12-17T09:14:27;1.10;99.90
7814;DHT22;3952;48.364;16.022;2022-12-17T09:17:12;1.10;99.90
7814;DHT22;3952;48.364;16.022;2022-12-17T09:19:56;1.10;99.90
7814;DHT22;3952;48.364;16.022;2022-12-17T09:22:43;1.10;99.90
7814;DHT22;3952;48.364;16.022;2022-12-17T09:25:28;1.00;99.90
7814;DHT22;3952;48.364;16.022;2022-12-17T09:28:12;1.10;99.90
7814;DHT22;3952;48.364;16.022;2022-12-17T09:30:58;1.10;99.90
7814;DHT22;3952;48.364;16.022;2022-12-17T09:33:43;1.10;99.90
7814;DHT22;3952;48.364;16.022;2022-12-17T09:36:27;1.10;99.90
7814;DHT22;3952;48.364;16.022;2022-12-17T09:39:13;1.10;99.90
7814;DHT22;3952;48.364;16.022;2022-12-17T09:42:05;1.10;99.90
7814;DHT22;3952;48.364;16.022;2022-12-17T09:44:55;1.10;99.90
7814;DHT22;3952;48.364;16.022;2022-12-17T09:47:50;1.10;99.90
7814;DHT22;3952;48.364;16.022;2022-12-17T09:50:35;1.10;99.90
7814;DHT22;3952;48.364;16.022;2022-12-17T09:53:23;1.10;99.90
7814;DHT22;3952;48.364;16.022;2022-12-17T09:56:14;1.10;99.90
7814;DHT22;3952;48.364;16.022;2022-12-17T09:58:58;1.10;99.90
7814;DHT22;3952;48.364;16.022;2022-12-17T10:01:43;1.10;99.90
7814;DHT22;3952;48.364;16.022;2022-12-17T10:04:37;1.10;99.90
7814;DHT22;3952;48.364;16.022;2022-12-17T10:07:31;1.10;99.90
7814;DHT22;3952;48.364;16.022;2022-12-17T10:10:18;1.10;99.90
7814;DHT22;3952;48.364;16.022;2022-12-17T10:13:10;1.10;99.90
7814;DHT22;3952;48.364;16.022;2022-12-17T10:15:55;1.10;99.90
7814;DHT22;3952;48.364;16.022;2022-12-17T10:18:40;1.10;99.90
7814;DHT22;3952;48.364;16.022;2022-12-17T10:21:27;1.20;99.90
7814;DHT22;3952;48.364;16.022;2022-12-17T10:24:12;1.20;99.90
7814;DHT22;3952;48.364;16.022;2022-12-17T10:27:07;1.20;99.90
7814;DHT22;3952;48.364;16.022;2022-12-17T10:29:54;1.20;99.90
7814;DHT22;3952;48.364;16.022;2022-12-17T10:32:39;1.20;99.90
7814;DHT22;3952;48.364;16.022;2022-12-17T10:35:25;1.30;99.90
7814;DHT22;3952;48.364;16.022;2022-12-17T10:38:22;1.30;99.90
7814;DHT22;3952;48.364;16.022;2022-12-17T10:41:19;1.30;99.90
7814;DHT22;3952;48.364;16.022;2022-12-17T10:44:19;1.30;99.90
7814;DHT22;3952;48.364;16.022;2022-12-17T10:47:11;1.30;99.90
7814;DHT22;3952;48.364;16.022;2022-12-17T10:49:56;1.30;99.90
7814;DHT22;3952;48.364;16.022;2022-12-17T10:52:43;1.30;99.90
7814;DHT22;3952;48.364;16.022;2022-12-17T10:55:29;1.30;99.90
7814;DHT22;3952;48.364;16.022;2022-12-17T10:58:30;1.40;99.90
7814;DHT22;3952;48.364;16.022;2022-12-17T11:01:19;1.40;99.90
7814;DHT22;3952;48.364;16.022;2022-12-17T11:04:25;1.40;99.90
7814;DHT22;3952;48.364;16.022;2022-12-17T11:07:14;1.40;99.90
7814;DHT22;3952;48.364;16.022;2022-12-17T11:10:01;1.40;99.90
7814;DHT22;3952;48.364;16.022;2022-12-17T11:12:51;1.40;99.90
7814;DHT22;3952;48.364;16.022;2022-12-17T11:15:41;1.40;99.90
7814;DHT22;3952;48.364;16.022;2022-12-17T11:18:30;1.40;99.90
7814;DHT22;3952;48.364;16.022;2022-12-17T11:21:20;1.40;99.90
7814;DHT22;3952;48.364;16.022;2022-12-17T11:24:11;1.40;99.90
7814;DHT22;3952;48.364;16.022;2022-12-17T11:26:58;1.40;99.90
7814;DHT22;3952;48.364;16.022;2022-12-17T11:29:46;1.40;99.90
7814;DHT22;3952;48.364;16.022;2022-12-17T11:32:46;1.40;99.90
7814;DHT22;3952;48.364;16.022;2022-12-17T11:35:42;1.50;99.90
7814;DHT22;3952;48.364;16.022;2022-12-17T11:38:36;1.40;99.90
7814;DHT22;3952;48.364;16.022;2022-12-17T11:41:30;1.40;99.90
7814;DHT22;3952;48.364;16.022;2022-12-17T11:44:29;1.40;99.90
7814;DHT22;3952;48.364;16.022;2022-12-17T11:47:24;1.40;99.90
7814;DHT22;3952;48.364;16.022;2022-12-17T11:50:21;1.40;99.90
7814;DHT22;3952;48.364;16.022;2022-12-17T11:53:17;1.40;99.90
7814;DHT22;3952;48.364;16.022;2022-12-17T11:56:11;1.40;99.90
7814;DHT22;3952;48.364;16.022;2022-12-17T11:59:03;1.40;99.90
7814;DHT22;3952;48.364;16.022;2022-12-17T12:01:57;1.40;99.90
7814;DHT22;3952;48.364;16.022;2022-12-17T12:05:01;1.40;99.90
7814;DHT22;3952;48.364;16.022;2022-12-17T12:07:56;1.30;99.90
7814;DHT22;3952;48.364;16.022;2022-12-17T12:10:51;1.30;99.90
7814;DHT22;3952;48.364;16.022;2022-12-17T12:13:45;1.30;99.90
7814;DHT22;3952;48.364;16.022;2022-12-17T12:16:40;1.40;99.90
7814;DHT22;3952;48.364;16.022;2022-12-17T12:19:33;1.50;99.90
7814;DHT22;3952;48.364;16.022;2022-12-17T12:22:27;1.50;99.90
7814;DHT22;3952;48.364;16.022;2022-12-17T12:25:23;1.50;99.90
7814;DHT22;3952;48.364;16.022;2022-12-17T12:28:19;1.50;99.90
7814;DHT22;3952;48.364;16.022;2022-12-17T12:31:13;1.50;99.90
7814;DHT22;3952;48.364;16.022;2022-12-17T12:34:03;1.50;99.90
7814;DHT22;3952;48.364;16.022;2022-12-17T12:36:50;1.50;99.90
7814;DHT22;3952;48.364;16.022;2022-12-17T12:39:37;1.50;99.90
7814;DHT22;3952;48.364;16.022;2022-12-17T12:42:29;1.50;99.90
7814;DHT22;3952;48.364;16.022;2022-12-17T12:45:31;1.50;99.90
7814;DHT22;3952;48.364;16.022;2022-12-17T12:48:27;1.50;99.90
7814;DHT22;3952;48.364;16.022;2022-12-17T12:51:19;1.50;99.90
7814;DHT22;3952;48.364;16.022;2022-12-17T12:54:25;1.50;99.90
7814;DHT22;3952;48.364;16.022;2022-12-17T12:57:35;1.80;99.90
7814;DHT22;3952;48.364;16.022;2022-12-17T13:00:30;1.50;99.90
7814;DHT22;3952;48.364;16.022;2022-12-17T13:03:25;1.50;99.90
7814;DHT22;3952;48.364;16.022;2022-12-17T13:06:10;1.50;99.90
7814;DHT22;3952;48.364;16.022;2022-12-17T13:08:39;1.50;99.90
7814;DHT22;3952;48.364;16.022;2022-12-17T13:11:24;1.50;99.90
7814;DHT22;3952;48.364;16.022;2022-12-17T13:13:54;1.60;99.90
7814;DHT22;3952;48.364;16.022;2022-12-17T13:16:32;1.60;99.90
7814;DHT22;3952;48.364;16.022;2022-12-17T13:19:18;1.60;99.90
7814;DHT22;3952;48.364;16.022;2022-12-17T13:21:47;1.50;99.90
7814;DHT22;3952;48.364;16.022;2022-12-17T13:24:23;1.50;99.90
7814;DHT22;3952;48.364;16.022;2022-12-17T13:26:51;1.50;99.90
7814;DHT22;3952;48.364;16.022;2022-12-17T13:29:26;1.50;99.90
7814;DHT22;3952;48.364;16.022;2022-12-17T13:32:04;1.40;99.90
7814;DHT22;3952;48.364;16.022;2022-12-17T13:34:44;1.50;99.90
7814;DHT22;3952;48.364;16.022;2022-12-17T13:37:21;1.50;99.90
7814;DHT22;3952;48.364;16.022;2022-12-17T13:40:00;1.50;99.90
7814;DHT22;3952;48.364;16.022;2022-12-17T13:42:30;1.50;99.90
7814;DHT22;3952;48.364;16.022;2022-12-17T13:45:00;1.50;99.90
7814;DHT22;3952;48.364;16.022;2022-12-17T13:47:29;1.50;99.90
7814;DHT22;3952;48.364;16.022;2022-12-17T13:50:00;1.50;99.90
7814;DHT22;3952;48.364;16.022;2022-12-17T13:52:28;1.50;99.90
7814;DHT22;3952;48.364;16.022;2022-12-17T13:55:06;1.50;99.90
7814;DHT22;3952;48.364;16.022;2022-12-17T13:57:35;1.50;99.90
7814;DHT22;3952;48.364;16.022;2022-12-17T14:00:04;1.50;99.90
7814;DHT22;3952;48.364;16.022;2022-12-17T14:02:34;1.50;99.90
7814;DHT22;3952;48.364;16.022;2022-12-17T14:05:07;1.50;99.90
7814;DHT22;3952;48.364;16.022;2022-12-17T14:07:47;1.40;99.90
7814;DHT22;3952;48.364;16.022;2022-12-17T14:10:17;1.40;99.90
7814;DHT22;3952;48.364;16.022;2022-12-17T14:12:45;1.40;99.90
7814;DHT22;3952;48.364;16.022;2022-12-17T14:15:22;1.50;99.90
7814;DHT22;3952;48.364;16.022;2022-12-17T14:17:51;1.40;99.90
7814;DHT22;3952;48.364;16.022;2022-12-17T14:20:22;1.40;99.90
7814;DHT22;3952;48.364;16.022;2022-12-17T14:22:52;1.40;99.90
7814;DHT22;3952;48.364;16.022;2022-12-17T14:25:22;1.40;99.90
7814;DHT22;3952;48.364;16.022;2022-12-17T14:27:53;1.40;99.90
7814;DHT22;3952;48.364;16.022;2022-12-17T14:30:24;1.40;99.90
7814;DHT22;3952;48.364;16.022;2022-12-17T14:32:56;1.40;99.90
7814;DHT22;3952;48.364;16.022;2022-12-17T14:35:28;1.30;99.90
7814;DHT22;3952;48.364;16.022;2022-12-17T14:37:55;1.30;99.90
7814;DHT22;3952;48.364;16.022;2022-12-17T14:40:24;1.30;99.90
7814;DHT22;3952;48.364;16.022;2022-12-17T14:42:56;1.30;99.90
7814;DHT22;3952;48.364;16.022;2022-12-17T14:45:25;1.30;99.90
7814;DHT22;3952;48.364;16.022;2022-12-17T14:47:54;1.30;99.90
7814;DHT22;3952;48.364;16.022;2022-12-17T14:50:31;1.20;99.90
7814;DHT22;3952;48.364;16.022;2022-12-17T14:53:00;1.20;99.90
7814;DHT22;3952;48.364;16.022;2022-12-17T14:55:30;1.20;99.90
7814;DHT22;3952;48.364;16.022;2022-12-17T14:58:19;1.20;99.90
7814;DHT22;3952;48.364;16.022;2022-12-17T15:00:49;1.30;99.90
7814;DHT22;3952;48.364;16.022;2022-12-17T15:03:20;1.30;99.90
7814;DHT22;3952;48.364;16.022;2022-12-17T15:05:51;1.30;99.90
7814;DHT22;3952;48.364;16.022;2022-12-17T15:08:20;1.30;99.90
7814;DHT22;3952;48.364;16.022;2022-12-17T15:10:47;1.30;99.90
7814;DHT22;3952;48.364;16.022;2022-12-17T15:13:14;1.30;99.90
7814;DHT22;3952;48.364;16.022;2022-12-17T15:15:43;1.30;99.90
7814;DHT22;3952;48.364;16.022;2022-12-17T15:18:10;1.30;99.90
7814;DHT22;3952;48.364;16.022;2022-12-17T15:20:38;1.30;99.90
7814;DHT22;3952;48.364;16.022;2022-12-17T15:23:11;1.30;99.90
7814;DHT22;3952;48.364;16.022;2022-12-17T15:25:40;1.20;99.90
7814;DHT22;3952;48.364;16.022;2022-12-17T15:28:08;1.20;99.90
7814;DHT22;3952;48.364;16.022;2022-12-17T15:30:36;1.20;99.90
7814;DHT22;3952;48.364;16.022;2022-12-17T15:33:05;1.20;99.90
7814;DHT22;3952;48.364;16.022;2022-12-17T15:35:32;1.10;99.90
7814;DHT22;3952;48.364;16.022;2022-12-17T15:38:00;1.10;99.90
7814;DHT22;3952;48.364;16.022;2022-12-17T15:40:29;1.00;99.90
7814;DHT22;3952;48.364;16.022;2022-12-17T15:42:56;1.00;99.90
7814;DHT22;3952;48.364;16.022;2022-12-17T15:45:39;1.00;99.90
7814;DHT22;3952;48.364;16.022;2022-12-17T15:48:07;1.00;99.90
7814;DHT22;3952;48.364;16.022;2022-12-17T15:50:35;1.00;99.90
7814;DHT22;3952;48.364;16.022;2022-12-17T15:53:02;0.90;99.90
7814;DHT22;3952;48.364;16.022;2022-12-17T15:55:31;1.00;99.90
7814;DHT22;3952;48.364;16.022;2022-12-17T15:57:58;1.00;99.90
7814;DHT22;3952;48.364;16.022;2022-12-17T16:00:26;0.90;99.90
7814;DHT22;3952;48.364;16.022;2022-12-17T16:02:53;0.90;99.90
7814;DHT22;3952;48.364;16.022;2022-12-17T16:05:21;1.00;99.90
7814;DHT22;3952;48.364;16.022;2022-12-17T16:07:48;1.00;99.90
7814;DHT22;3952;48.364;16.022;2022-12-17T16:10:16;1.00;99.90
7814;DHT22;3952;48.364;16.022;2022-12-17T16:12:45;1.00;99.90
7814;DHT22;3952;48.364;16.022;2022-12-17T16:15:12;1.00;99.90
7814;DHT22;3952;48.364;16.022;2022-12-17T16:17:40;1.00;99.90
7814;DHT22;3952;48.364;16.022;2022-12-17T16:20:08;1.00;99.90
7814;DHT22;3952;48.364;16.022;2022-12-17T16:22:36;1.00;99.90
7814;DHT22;3952;48.364;16.022;2022-12-17T16:25:04;1.00;99.90
7814;DHT22;3952;48.364;16.022;2022-12-17T16:27:32;1.00;99.90
7814;DHT22;3952;48.364;16.022;2022-12-17T16:30:01;1.00;99.90
7814;DHT22;3952;48.364;16.022;2022-12-17T16:32:29;1.00;99.90
7814;DHT22;3952;48.364;16.022;2022-12-17T16:34:56;1.00;99.90
7814;DHT22;3952;48.364;16.022;2022-12-17T16:37:23;1.00;99.90
7814;DHT22;3952;48.364;16.022;2022-12-17T16:39:51;1.00;99.90
7814;DHT22;3952;48.364;16.022;2022-12-17T16:42:18;1.00;99.90
7814;DHT22;3952;48.364;16.022;2022-12-17T16:44:45;1.00;99.90
7814;DHT22;3952;48.364;16.022;2022-12-17T16:47:14;1.00;99.90
7814;DHT22;3952;48.364;16.022;2022-12-17T16:49:41;1.00;99.90
7814;DHT22;3952;48.364;16.022;2022-12-17T16:52:09;1.00;99.90
7814;DHT22;3952;48.364;16.022;2022-12-17T16:54:36;0.20;99.90
7814;DHT22;3952;48.364;16.022;2022-12-17T16:57:03;0.90;99.90
7814;DHT22;3952;48.364;16.022;2022-12-17T16:59:30;0.90;99.90
7814;DHT22;3952;48.364;16.022;2022-12-17T17:01:58;0.90;99.90
7814;DHT22;3952;48.364;16.022;2022-12-17T17:04:27;0.90;99.90
7814;DHT22;3952;48.364;16.022;2022-12-17T17:06:55;0.90;99.90
7814;DHT22;3952;48.364;16.022;2022-12-17T17:09:24;0.90;99.90
7814;DHT22;3952;48.364;16.022;2022-12-17T17:11:54;0.90;99.90
7814;DHT22;3952;48.364;16.022;2022-12-17T17:14:22;0.90;99.90
7814;DHT22;3952;48.364;16.022;2022-12-17T17:16:50;0.90;99.90
7814;DHT22;3952;48.364;16.022;2022-12-17T17:19:17;0.90;99.90
7814;DHT22;3952;48.364;16.022;2022-12-17T17:21:49;0.90;99.90
7814;DHT22;3952;48.364;16.022;2022-12-17T17:24:18;0.90;99.90
7814;DHT22;3952;48.364;16.022;2022-12-17T17:26:47;0.90;99.90
7814;DHT22;3952;48.364;16.022;2022-12-17T17:29:14;0.90;99.90
7814;DHT22;3952;48.364;16.022;2022-12-17T17:31:41;0.90;99.90
7814;DHT22;3952;48.364;16.022;2022-12-17T17:34:09;0.90;99.90
7814;DHT22;3952;48.364;16.022;2022-12-17T17:36:39;0.90;99.90
7814;DHT22;3952;48.364;16.022;2022-12-17T17:39:08;0.90;99.90
7814;DHT22;3952;48.364;16.022;2022-12-17T17:41:36;0.90;99.90